createdAt,value
2023-02-01T00:00:51.565Z,1.67
2023-02-01T00:01:53.283Z,1.27
2023-02-01T00:02:56.066Z,1.70
2023-02-01T00:03:58.020Z,1.30
2023-02-01T00:05:00.788Z,1.60
2023-02-01T00:06:04.040Z,1.23
2023-02-01T00:07:07.583Z,1.40
2023-02-01T00:08:10.100Z,1.70
2023-02-01T00:09:12.869Z,1.70
2023-02-01T00:10:14.548Z,1.40
2023-02-01T00:11:18.590Z,1.42
2023-02-01T00:12:20.246Z,1.30
2023-02-01T00:13:22.907Z,1.67
2023-02-01T00:14:24.713Z,1.42
2023-02-01T00:15:27.451Z,1.45
2023-02-01T00:16:30.686Z,1.70
2023-02-01T00:17:33.385Z,1.40
2023-02-01T00:18:35.131Z,1.25
2023-02-01T00:19:37.824Z,1.10
2023-02-01T00:20:39.691Z,1.33
2023-02-01T00:21:42.664Z,1.67
2023-02-01T00:22:44.341Z,1.65
2023-02-01T00:23:47.207Z,1.50
2023-02-01T00:24:48.961Z,1.50
2023-02-01T00:25:51.783Z,1.57
2023-02-01T00:26:54.848Z,1.20
2023-02-01T00:27:59.791Z,1.50
2023-02-01T00:29:01.836Z,1.40
2023-02-01T00:30:05.407Z,1.40
2023-02-01T00:31:07.405Z,1.50
2023-02-01T00:32:10.128Z,1.37
2023-02-01T00:33:11.885Z,1.55
2023-02-01T00:34:16.431Z,1.52
2023-02-01T00:35:18.130Z,1.42
2023-02-01T00:36:21.198Z,1.60
2023-02-01T00:37:24.199Z,1.80
2023-02-01T00:38:26.881Z,1.30
2023-02-01T00:39:28.700Z,1.33
2023-02-01T00:40:31.397Z,1.63
2023-02-01T00:41:33.160Z,1.48
2023-02-01T00:42:37.220Z,1.52
2023-02-01T00:43:39.263Z,1.40
2023-02-01T00:44:41.948Z,1.60
2023-02-01T00:45:43.665Z,1.65
2023-02-01T00:46:46.480Z,1.45
2023-02-01T00:47:48.242Z,1.50
2023-02-01T00:48:51.383Z,1.30
2023-02-01T00:49:53.237Z,1.30
2023-02-01T00:50:55.975Z,1.33
2023-02-01T00:51:57.750Z,1.73
2023-02-01T00:53:00.732Z,1.80
2023-02-01T00:54:02.500Z,1.67
2023-02-01T00:55:05.699Z,1.83
2023-02-01T00:56:08.434Z,1.63
2023-02-01T00:57:11.181Z,1.60
2023-02-01T00:58:14.467Z,1.50
2023-02-01T00:59:17.349Z,1.77
2023-02-01T01:00:19.940Z,1.53
2023-02-01T01:01:25.090Z,1.90
2023-02-01T01:02:27.585Z,1.60
2023-02-01T01:03:34.153Z,1.40
2023-02-01T01:04:36.834Z,1.70
2023-02-01T01:05:38.571Z,1.83
2023-02-01T01:06:41.438Z,1.50
2023-02-01T01:07:43.166Z,2.05
2023-02-01T01:08:46.342Z,1.80
2023-02-01T01:09:48.104Z,1.83
2023-02-01T01:10:51.261Z,1.87
2023-02-01T01:11:53.717Z,1.65
2023-02-01T01:12:56.386Z,1.60
2023-02-01T01:14:01.593Z,2.20
2023-02-01T01:15:03.747Z,1.70
2023-02-01T01:16:07.694Z,1.73
2023-02-01T01:17:09.400Z,1.75
2023-02-01T01:18:12.174Z,1.83
2023-02-01T01:19:14.897Z,1.83
2023-02-01T01:20:17.594Z,2.05
2023-02-01T01:21:20.427Z,1.95
2023-02-01T01:22:22.147Z,1.77
2023-02-01T01:23:25.022Z,1.88
2023-02-01T01:24:27.747Z,1.73
2023-02-01T01:25:29.642Z,1.60
2023-02-01T01:26:32.705Z,1.30
2023-02-01T01:27:34.408Z,2.00
2023-02-01T01:28:37.541Z,2.22
2023-02-01T01:29:40.611Z,2.05
2023-02-01T01:30:43.385Z,1.67
2023-02-01T01:31:46.324Z,1.58
2023-02-01T01:32:48.067Z,1.58
2023-02-01T01:33:51.741Z,1.77
2023-02-01T01:34:53.447Z,1.40
2023-02-01T01:35:56.181Z,1.83
2023-02-01T01:36:57.958Z,1.65
2023-02-01T01:38:01.173Z,1.75
2023-02-01T01:39:04.247Z,1.70
2023-02-01T01:40:08.496Z,1.75
2023-02-01T01:41:14.559Z,1.73
2023-02-01T01:42:16.286Z,1.80
2023-02-01T01:43:23.243Z,1.73
2023-02-01T01:45:04.694Z,1.60
2023-02-01T01:46:06.469Z,1.80
2023-02-01T01:47:09.391Z,1.58
2023-02-01T01:48:16.145Z,2.00
2023-02-01T01:49:21.024Z,1.45
2023-02-01T01:50:26.384Z,1.80
2023-02-01T01:51:31.131Z,1.80
2023-02-01T01:52:32.901Z,2.10
2023-02-01T01:53:40.079Z,1.70
2023-02-01T01:54:45.378Z,1.90
2023-02-01T01:55:49.730Z,1.52
2023-02-01T01:56:54.718Z,1.50
2023-02-01T01:58:00.217Z,1.73
2023-02-01T01:59:02.425Z,2.00
2023-02-01T02:00:10.171Z,1.73
2023-02-01T02:01:11.942Z,1.93
2023-02-01T02:02:14.825Z,2.00
2023-02-01T02:03:20.120Z,2.13
2023-02-01T02:04:22.873Z,1.48
2023-02-01T02:05:24.640Z,2.03
2023-02-01T02:06:37.238Z,1.98
2023-02-01T02:07:41.678Z,1.85
2023-02-01T02:08:44.428Z,1.90
2023-02-01T02:09:59.500Z,1.65
2023-02-01T02:11:03.638Z,1.80
2023-02-01T02:12:08.464Z,2.17
2023-02-01T02:13:11.902Z,1.35
2023-02-01T02:14:15.024Z,2.07
2023-02-01T02:15:19.466Z,1.52
2023-02-01T02:16:32.313Z,2.10
2023-02-01T02:17:39.474Z,2.37
2023-02-01T02:18:46.948Z,1.90
2023-02-01T02:20:05.960Z,1.98
2023-02-01T02:21:20.582Z,2.10
2023-02-01T02:22:43.646Z,2.38
2023-02-01T02:24:18.175Z,1.92
2023-02-01T02:26:00.893Z,1.98
2023-02-01T02:27:23.967Z,2.28
2023-02-01T02:29:01.503Z,2.47
2023-02-01T02:30:30.272Z,2.13
2023-02-01T02:31:46.730Z,1.65
2023-02-01T02:33:19.988Z,1.90
2023-02-01T02:34:26.555Z,1.60
2023-02-01T02:35:32.945Z,1.60
2023-02-01T02:36:41.058Z,1.95
2023-02-01T02:37:46.936Z,2.00
2023-02-01T02:38:53.715Z,2.40
2023-02-01T02:40:01.782Z,2.28
2023-02-01T02:41:10.039Z,2.15
2023-02-01T02:42:35.454Z,2.25
2023-02-01T02:44:03.815Z,1.93
2023-02-01T02:45:28.251Z,2.42
2023-02-01T02:46:53.343Z,2.60
2023-02-01T02:47:58.800Z,2.10
2023-02-01T02:49:07.438Z,2.03
2023-02-01T02:50:37.181Z,2.35
2023-02-01T02:52:01.901Z,2.50
2023-02-01T02:53:27.294Z,1.90
2023-02-01T02:54:48.232Z,2.10
2023-02-01T02:55:51.877Z,2.30
2023-02-01T02:57:13.246Z,2.30
2023-02-01T02:58:34.594Z,2.30
2023-02-01T02:59:55.472Z,1.83
2023-02-01T03:01:16.254Z,1.17
2023-02-01T03:02:36.891Z,1.30
2023-02-01T03:03:57.460Z,1.27
2023-02-01T03:05:01.550Z,0.75
2023-02-01T03:06:03.413Z,0.93
2023-02-01T03:07:17.036Z,1.30
2023-02-01T03:08:20.684Z,1.10
2023-02-01T03:09:28.934Z,0.90
2023-02-01T03:10:39.959Z,1.37
2023-02-01T03:12:00.605Z,1.80
2023-02-01T03:13:05.869Z,1.80
2023-02-01T03:14:07.702Z,1.80
2023-02-01T03:15:13.489Z,1.90
2023-02-01T03:16:18.797Z,1.97
2023-02-01T03:17:24.344Z,1.53
2023-02-01T03:18:31.861Z,1.47
2023-02-01T03:19:37.213Z,1.70
2023-02-01T03:20:42.271Z,2.30
2023-02-01T03:21:47.782Z,1.98
2023-02-01T03:22:50.808Z,2.10
2023-02-01T03:23:54.960Z,1.60
2023-02-01T03:24:59.546Z,1.93
2023-02-01T03:26:03.180Z,2.13
2023-02-01T03:27:07.180Z,1.50
2023-02-01T03:28:11.415Z,1.77
2023-02-01T03:29:15.529Z,1.70
2023-02-01T03:30:20.637Z,1.93
2023-02-01T03:31:23.067Z,2.23
2023-02-01T03:32:25.825Z,2.27
2023-02-01T03:33:28.475Z,1.70
2023-02-01T03:34:31.381Z,1.97
2023-02-01T03:35:34.942Z,1.90
2023-02-01T03:36:42.789Z,2.03
2023-02-01T03:37:45.084Z,1.97
2023-02-01T03:38:53.001Z,1.83
2023-02-01T03:39:58.581Z,2.15
2023-02-01T03:41:05.918Z,2.10
2023-02-01T03:42:10.741Z,1.90
2023-02-01T03:43:17.135Z,1.90
2023-02-01T03:44:23.058Z,1.77
2023-02-01T03:45:29.307Z,2.00
2023-02-01T03:46:34.751Z,2.13
2023-02-01T03:47:39.827Z,1.98
2023-02-01T03:48:41.747Z,1.73
2023-02-01T03:49:47.201Z,1.50
2023-02-01T03:50:52.626Z,2.00
2023-02-01T03:51:57.065Z,2.20
2023-02-01T03:53:00.908Z,1.83
2023-02-01T03:54:04.691Z,2.15
2023-02-01T03:55:07.854Z,1.92
2023-02-01T03:56:12.526Z,2.50
2023-02-01T03:57:17.215Z,2.15
2023-02-01T03:58:21.428Z,2.27
2023-02-01T03:59:23.154Z,1.58
2023-02-01T04:00:27.835Z,1.73
2023-02-01T04:01:30.541Z,2.20
2023-02-01T04:02:33.292Z,2.08
2023-02-01T04:03:35.965Z,1.88
2023-02-01T04:04:38.458Z,1.75
2023-02-01T04:05:41.153Z,2.30
2023-02-01T04:06:42.913Z,2.50
2023-02-01T04:07:47.115Z,2.65
2023-02-01T04:08:48.818Z,2.60
2023-02-01T04:09:51.515Z,2.28
2023-02-01T04:10:53.224Z,2.42
2023-02-01T04:11:55.904Z,1.95
2023-02-01T04:12:57.628Z,2.15
2023-02-01T04:14:05.130Z,1.73
2023-02-01T04:15:08.263Z,2.22
2023-02-01T04:16:11.147Z,2.20
2023-02-01T04:17:12.885Z,2.00
2023-02-01T04:18:15.559Z,2.20
2023-02-01T04:19:17.358Z,2.30
2023-02-01T04:20:20.632Z,2.05
2023-02-01T04:21:22.471Z,1.85
2023-02-01T04:22:25.362Z,2.43
2023-02-01T04:23:28.610Z,1.83
2023-02-01T04:24:31.386Z,1.90
2023-02-01T04:25:33.107Z,2.30
2023-02-01T04:26:35.812Z,1.70
2023-02-01T04:27:37.647Z,1.73
2023-02-01T04:28:40.303Z,2.15
2023-02-01T04:29:42.346Z,1.70
2023-02-01T04:30:45.895Z,1.92
2023-02-01T04:31:47.721Z,1.85
2023-02-01T04:32:50.428Z,1.95
2023-02-01T04:33:52.467Z,2.17
2023-02-01T04:34:55.275Z,1.60
2023-02-01T04:35:56.968Z,1.67
2023-02-01T04:36:59.672Z,1.67
2023-02-01T04:38:01.664Z,1.48
2023-02-01T04:39:05.856Z,1.70
2023-02-01T04:40:08.757Z,1.67
2023-02-01T04:41:11.423Z,1.65
2023-02-01T04:42:13.305Z,2.20
2023-02-01T04:43:16.074Z,1.30
2023-02-01T04:44:19.014Z,1.52
2023-02-01T04:45:21.669Z,1.40
2023-02-01T04:46:23.595Z,1.65
2023-02-01T04:47:26.297Z,2.05
2023-02-01T04:48:28.653Z,1.90
2023-02-01T04:49:31.355Z,1.42
2023-02-01T04:50:33.058Z,1.30
2023-02-01T04:51:35.802Z,1.30
2023-02-01T04:52:38.034Z,1.40
2023-02-01T04:53:40.763Z,1.58
2023-02-01T04:54:43.912Z,1.48
2023-02-01T04:55:46.843Z,1.58
2023-02-01T04:56:48.531Z,1.53
2023-02-01T04:57:51.293Z,1.30
2023-02-01T04:58:54.050Z,1.70
2023-02-01T04:59:55.767Z,1.38
2023-02-01T05:00:58.469Z,1.77
2023-02-01T05:02:00.203Z,1.57
2023-02-01T05:03:03.011Z,1.70
2023-02-01T05:04:05.309Z,1.42
2023-02-01T05:05:08.632Z,1.35
2023-02-01T05:06:10.408Z,1.40
2023-02-01T05:07:13.247Z,1.50
2023-02-01T05:08:15.919Z,1.50
2023-02-01T05:09:17.761Z,1.43
2023-02-01T05:10:22.052Z,1.55
2023-02-01T05:11:42.336Z,1.88
2023-02-01T05:13:02.641Z,1.50
2023-02-01T05:14:04.430Z,1.20
2023-02-01T05:15:08.356Z,1.40
2023-02-01T05:16:10.127Z,1.10
2023-02-01T05:17:12.835Z,1.30
2023-02-01T05:18:14.561Z,1.50
2023-02-01T05:19:17.219Z,1.33
2023-02-01T05:20:19.179Z,1.50
2023-02-01T05:21:21.883Z,1.10
2023-02-01T05:22:23.587Z,1.20
2023-02-01T05:23:26.349Z,1.20
2023-02-01T05:24:28.106Z,0.98
2023-02-01T05:25:32.138Z,0.90
2023-02-01T05:26:34.562Z,1.20
2023-02-01T05:27:37.485Z,1.20
2023-02-01T05:28:39.180Z,1.10
2023-02-01T05:29:41.941Z,0.95
2023-02-01T05:30:43.965Z,1.30
2023-02-01T05:31:47.018Z,0.88
2023-02-01T05:32:51.037Z,0.95
2023-02-01T05:33:53.836Z,1.53
2023-02-01T05:34:55.927Z,1.13
2023-02-01T05:35:58.615Z,1.60
2023-02-01T05:37:00.373Z,1.23
2023-02-01T05:38:03.080Z,1.00
2023-02-01T05:39:04.995Z,0.77
2023-02-01T05:40:08.981Z,1.10
2023-02-01T05:41:12.037Z,1.20
2023-02-01T05:42:14.830Z,0.93
2023-02-01T05:43:17.349Z,0.82
2023-02-01T05:44:20.147Z,1.00
2023-02-01T05:45:21.949Z,0.77
2023-02-01T05:46:24.901Z,0.90
2023-02-01T05:47:26.782Z,1.00
2023-02-01T05:48:29.486Z,1.20
2023-02-01T05:49:31.335Z,0.85
2023-02-01T05:50:34.031Z,1.17
2023-02-01T05:51:35.730Z,0.77
2023-02-01T05:52:38.418Z,0.67
2023-02-01T05:53:40.145Z,0.80
2023-02-01T05:54:42.841Z,1.00
2023-02-01T05:55:44.638Z,0.90
2023-02-01T05:56:48.699Z,0.57
2023-02-01T05:57:50.376Z,1.20
2023-02-01T05:58:53.118Z,0.70
2023-02-01T05:59:56.468Z,0.93
2023-02-01T06:01:01.500Z,1.10
2023-02-01T06:02:03.214Z,0.65
2023-02-01T06:03:05.893Z,0.80
2023-02-01T06:04:07.637Z,1.00
2023-02-01T06:05:10.671Z,0.80
2023-02-01T06:06:12.418Z,0.70
2023-02-01T06:07:15.156Z,1.07
2023-02-01T06:08:18.154Z,1.10
2023-02-01T06:09:21.122Z,1.00
2023-02-01T06:10:23.252Z,0.70
2023-02-01T06:11:33.805Z,0.85
2023-02-01T06:12:36.905Z,1.00
2023-02-01T06:13:39.687Z,0.60
2023-02-01T06:14:41.976Z,0.77
2023-02-01T06:15:45.067Z,1.00
2023-02-01T06:16:47.463Z,0.70
2023-02-01T06:17:50.160Z,0.60
2023-02-01T06:18:52.100Z,0.53
2023-02-01T06:19:54.794Z,0.93
2023-02-01T06:20:57.159Z,0.70
2023-02-01T06:21:59.925Z,0.65
2023-02-01T06:23:01.623Z,0.60
2023-02-01T06:24:04.843Z,0.70
2023-02-01T06:25:08.362Z,0.50
2023-02-01T06:26:11.643Z,0.60
2023-02-01T06:27:14.258Z,0.53
2023-02-01T06:28:18.493Z,0.67
2023-02-01T06:29:20.211Z,0.70
2023-02-01T06:30:23.237Z,0.57
2023-02-01T06:31:26.242Z,0.60
2023-02-01T06:32:28.985Z,0.60
2023-02-01T06:33:31.311Z,0.80
2023-02-01T06:34:33.997Z,1.03
2023-02-01T06:35:35.696Z,0.55
2023-02-01T06:36:38.927Z,0.57
2023-02-01T06:37:40.690Z,1.00
2023-02-01T06:38:43.796Z,0.73
2023-02-01T06:39:46.606Z,0.82
2023-02-01T06:40:53.441Z,0.70
2023-02-01T06:41:56.093Z,1.02
2023-02-01T06:42:59.412Z,0.60
2023-02-01T06:44:03.482Z,0.80
2023-02-01T06:45:07.633Z,1.00
2023-02-01T06:46:12.229Z,0.87
2023-02-01T06:47:13.960Z,0.52
2023-02-01T06:48:16.656Z,0.93
2023-02-01T06:49:19.365Z,0.80
2023-02-01T06:50:22.731Z,1.10
2023-02-01T06:51:27.339Z,0.70
2023-02-01T06:52:29.077Z,0.77
2023-02-01T06:53:31.967Z,0.50
2023-02-01T06:54:35.073Z,0.73
2023-02-01T06:55:37.893Z,0.90
2023-02-01T06:56:39.679Z,1.00
2023-02-01T06:57:42.336Z,0.85
2023-02-01T06:58:44.094Z,0.60
2023-02-01T06:59:48.154Z,1.10
2023-02-01T07:00:49.999Z,0.90
2023-02-01T07:01:52.735Z,1.10
2023-02-01T07:02:54.506Z,1.20
2023-02-01T07:03:57.242Z,0.87
2023-02-01T07:04:58.899Z,1.20
2023-02-01T07:06:02.145Z,1.07
2023-02-01T07:07:03.907Z,1.30
2023-02-01T07:08:06.785Z,1.07
2023-02-01T07:09:09.123Z,1.43
2023-02-01T07:10:12.717Z,1.47
2023-02-01T07:11:15.917Z,1.60
2023-02-01T07:12:19.451Z,1.43
2023-02-01T07:13:21.230Z,1.17
2023-02-01T07:14:23.874Z,1.53
2023-02-01T07:15:26.919Z,1.75
2023-02-01T07:16:30.145Z,1.37
2023-02-01T07:17:32.047Z,1.60
2023-02-01T07:18:35.003Z,1.30
2023-02-01T07:19:36.695Z,0.90
2023-02-01T07:20:39.339Z,1.35
2023-02-01T07:21:41.984Z,0.98
2023-02-01T07:22:43.742Z,1.25
2023-02-01T07:23:46.626Z,1.07
2023-02-01T07:24:48.490Z,1.00
2023-02-01T07:25:51.235Z,1.48
2023-02-01T07:26:54.108Z,1.27
2023-02-01T07:27:55.822Z,1.30
2023-02-01T07:28:58.476Z,1.10
2023-02-01T07:30:03.013Z,1.13
2023-02-01T07:31:08.175Z,1.20
2023-02-01T07:32:09.924Z,1.55
2023-02-01T07:33:12.595Z,1.00
2023-02-01T07:34:15.356Z,0.88
2023-02-01T07:35:17.237Z,1.13
2023-02-01T07:36:20.843Z,1.00
2023-02-01T07:37:24.887Z,1.17
2023-02-01T07:38:26.591Z,0.85
2023-02-01T07:39:32.757Z,1.02
2023-02-01T07:40:35.457Z,0.80
2023-02-01T07:41:37.149Z,1.05
2023-02-01T07:42:39.849Z,1.38
2023-02-01T07:43:42.715Z,0.90
2023-02-01T07:44:45.376Z,0.90
2023-02-01T07:45:52.518Z,0.80
2023-02-01T07:46:56.753Z,1.00
2023-02-01T07:47:58.455Z,0.95
2023-02-01T07:49:01.239Z,1.13
2023-02-01T07:50:03.058Z,0.88
2023-02-01T07:51:08.053Z,1.08
2023-02-01T07:52:09.776Z,0.80
2023-02-01T07:53:12.504Z,1.00
2023-02-01T07:54:15.149Z,1.30
2023-02-01T07:55:18.049Z,1.20
2023-02-01T07:56:23.437Z,1.27
2023-02-01T07:57:25.206Z,1.30
2023-02-01T07:58:28.394Z,1.25
2023-02-01T07:59:31.088Z,1.00
2023-02-01T08:00:51.197Z,1.25
2023-02-01T08:01:52.978Z,0.93
2023-02-01T08:02:59.642Z,0.98
2023-02-01T08:04:03.967Z,1.15
2023-02-01T08:05:06.652Z,0.80
2023-02-01T08:06:09.391Z,1.38
2023-02-01T08:07:12.214Z,1.70
2023-02-01T08:08:15.137Z,1.40
2023-02-01T08:09:17.823Z,1.05
2023-02-01T08:10:20.277Z,1.30
2023-02-01T08:11:24.401Z,1.20
2023-02-01T08:12:27.946Z,1.65
2023-02-01T08:13:30.772Z,1.20
2023-02-01T08:14:33.722Z,1.38
2023-02-01T08:15:35.368Z,1.45
2023-02-01T08:16:40.253Z,1.50
2023-02-01T08:17:47.902Z,1.23
2023-02-01T08:18:52.304Z,1.25
2023-02-01T08:19:53.958Z,1.30
2023-02-01T08:20:56.772Z,1.52
2023-02-01T08:22:00.332Z,1.38
2023-02-01T08:23:02.051Z,1.15
2023-02-01T08:24:06.660Z,1.48
2023-02-01T08:25:09.292Z,1.42
2023-02-01T08:26:14.495Z,1.58
2023-02-01T08:27:17.285Z,1.20
2023-02-01T08:28:19.257Z,1.60
2023-02-01T08:29:21.914Z,1.52
2023-02-01T08:30:23.844Z,1.38
2023-02-01T08:31:28.127Z,1.20
2023-02-01T08:32:29.913Z,1.45
2023-02-01T08:33:34.453Z,1.65
2023-02-01T08:34:37.589Z,1.48
2023-02-01T08:35:44.027Z,1.73
2023-02-01T08:36:48.952Z,0.90
2023-02-01T08:37:51.066Z,1.27
2023-02-01T08:38:54.092Z,1.85
2023-02-01T08:39:55.839Z,1.60
2023-02-01T08:40:59.013Z,1.13
2023-02-01T08:42:33.533Z,1.40
2023-02-01T08:43:36.246Z,1.40
2023-02-01T08:44:37.967Z,1.70
2023-02-01T08:45:41.793Z,1.00
2023-02-01T08:46:44.557Z,1.00
2023-02-01T08:47:49.094Z,1.52
2023-02-01T08:48:52.663Z,1.55
2023-02-01T08:49:55.762Z,1.23
2023-02-01T08:50:58.557Z,1.63
2023-02-01T08:52:04.010Z,1.00
2023-02-01T08:53:09.727Z,1.25
2023-02-01T08:54:12.427Z,1.73
2023-02-01T08:55:14.783Z,1.65
2023-02-01T08:56:18.730Z,1.75
2023-02-01T08:57:20.425Z,0.90
2023-02-01T08:58:23.175Z,1.58
2023-02-01T08:59:27.582Z,1.33
2023-02-01T09:00:30.547Z,2.00
2023-02-01T09:01:32.334Z,1.02
2023-02-01T09:02:35.035Z,1.85
2023-02-01T09:03:37.754Z,1.10
2023-02-01T09:04:39.650Z,2.03
2023-02-01T09:05:49.488Z,1.50
2023-02-01T09:06:51.629Z,2.00
2023-02-01T09:07:54.581Z,1.40
2023-02-01T09:08:57.157Z,2.17
2023-02-01T09:10:01.854Z,2.42
2023-02-01T09:11:06.027Z,1.50
2023-02-01T09:12:07.933Z,1.63
2023-02-01T09:13:11.022Z,1.65
2023-02-01T09:14:13.714Z,1.15
2023-02-01T09:15:15.575Z,1.52
2023-02-01T09:16:18.331Z,1.55
2023-02-01T09:17:21.068Z,1.65
2023-02-01T09:18:24.011Z,1.63
2023-02-01T09:19:27.532Z,1.73
2023-02-01T09:20:30.520Z,1.85
2023-02-01T09:21:34.539Z,1.30
2023-02-01T09:22:37.209Z,1.42
2023-02-01T09:23:39.956Z,1.48
2023-02-01T09:24:41.681Z,1.80
2023-02-01T09:25:46.840Z,1.80
2023-02-01T09:26:53.214Z,1.50
2023-02-01T09:28:00.534Z,0.90
2023-02-01T09:29:04.475Z,1.85
2023-02-01T09:30:08.172Z,1.30
2023-02-01T09:31:10.917Z,2.03
2023-02-01T09:32:13.912Z,1.30
2023-02-01T09:33:18.937Z,1.65
2023-02-01T09:34:21.734Z,1.50
2023-02-01T09:35:24.406Z,1.13
2023-02-01T09:36:26.292Z,1.38
2023-02-01T09:37:30.385Z,1.05
2023-02-01T09:38:36.508Z,1.38
2023-02-01T09:39:41.474Z,0.98
2023-02-01T09:40:47.647Z,1.10
2023-02-01T09:41:57.949Z,0.65
2023-02-01T09:43:10.187Z,1.00
2023-02-01T09:44:25.718Z,1.08
2023-02-01T09:45:34.277Z,1.30
2023-02-01T09:46:36.451Z,0.90
2023-02-01T09:47:42.893Z,1.67
2023-02-01T09:48:46.144Z,1.25
2023-02-01T09:49:53.770Z,1.42
2023-02-01T09:50:58.441Z,0.90
2023-02-01T09:52:03.369Z,1.98
2023-02-01T09:53:12.630Z,0.98
2023-02-01T09:54:17.696Z,1.33
2023-02-01T09:55:24.839Z,1.15
2023-02-01T09:56:31.530Z,1.27
2023-02-01T09:57:43.973Z,1.10
2023-02-01T09:58:49.979Z,1.17
2023-02-01T09:59:58.346Z,2.28
2023-02-01T10:01:02.586Z,1.05
2023-02-01T10:02:10.408Z,1.73
2023-02-01T10:03:14.116Z,1.20
2023-02-01T10:04:16.631Z,1.60
2023-02-01T10:05:24.644Z,1.63
2023-02-01T10:06:38.630Z,1.00
2023-02-01T10:07:45.681Z,1.10
2023-02-01T10:09:12.647Z,1.40
2023-02-01T10:10:19.859Z,0.88
2023-02-01T10:11:26.424Z,1.38
2023-02-01T10:12:58.442Z,1.15
2023-02-01T10:14:07.815Z,1.00
2023-02-01T10:15:20.795Z,0.98
2023-02-01T10:16:33.798Z,1.13
2023-02-01T10:17:47.555Z,1.02
2023-02-01T10:19:13.457Z,1.25
2023-02-01T10:20:21.645Z,1.38
2023-02-01T10:21:43.007Z,1.13
2023-02-01T10:23:10.638Z,1.05
2023-02-01T10:24:38.260Z,1.42
2023-02-01T10:25:46.419Z,1.08
2023-02-01T10:26:52.553Z,1.13
2023-02-01T10:27:54.395Z,0.73
2023-02-01T10:28:59.382Z,0.90
2023-02-01T10:30:08.287Z,0.90
2023-02-01T10:31:10.513Z,1.52
2023-02-01T10:32:16.269Z,1.40
2023-02-01T10:33:26.482Z,1.10
2023-02-01T10:34:32.567Z,1.38
2023-02-01T10:35:37.506Z,1.20
2023-02-01T10:36:43.606Z,1.20
2023-02-01T10:37:46.240Z,1.38
2023-02-01T10:38:49.088Z,1.30
2023-02-01T10:39:54.713Z,1.67
2023-02-01T10:40:59.539Z,1.02
2023-02-01T10:42:02.195Z,1.08
2023-02-01T10:43:05.085Z,1.63
2023-02-01T10:44:11.606Z,1.45
2023-02-01T10:45:17.397Z,1.20
2023-02-01T10:46:19.128Z,1.13
2023-02-01T10:47:21.886Z,1.05
2023-02-01T10:48:23.728Z,1.35
2023-02-01T10:49:34.419Z,0.90
2023-02-01T10:50:41.341Z,1.58
2023-02-01T10:51:46.236Z,1.20
2023-02-01T10:52:50.554Z,1.08
2023-02-01T10:53:57.646Z,1.10
2023-02-01T10:55:30.525Z,1.05
2023-02-01T10:56:33.366Z,1.30
2023-02-01T10:57:35.047Z,1.50
2023-02-01T10:58:44.738Z,0.88
2023-02-01T10:59:47.397Z,1.30
2023-02-01T11:00:55.630Z,1.30
2023-02-01T11:02:02.556Z,1.10
2023-02-01T11:03:22.112Z,1.23
2023-02-01T11:04:29.554Z,1.45
2023-02-01T11:05:45.653Z,1.05
2023-02-01T11:06:50.362Z,1.10
2023-02-01T11:07:55.728Z,1.40
2023-02-01T11:08:59.982Z,0.73
2023-02-01T11:10:04.319Z,0.85
2023-02-01T11:11:12.079Z,1.17
2023-02-01T11:12:29.473Z,1.20
2023-02-01T11:13:36.778Z,1.25
2023-02-01T11:14:41.772Z,1.48
2023-02-01T11:15:46.069Z,1.27
2023-02-01T11:16:51.226Z,1.00
2023-02-01T11:17:55.682Z,1.27
2023-02-01T11:19:00.260Z,1.70
2023-02-01T11:20:06.323Z,1.48
2023-02-01T11:21:10.393Z,1.02
2023-02-01T11:22:14.215Z,1.40
2023-02-01T11:23:17.369Z,1.05
2023-02-01T11:24:24.463Z,1.10
2023-02-01T11:25:28.243Z,1.63
2023-02-01T11:26:32.176Z,1.20
2023-02-01T11:27:34.758Z,1.08
2023-02-01T11:28:42.448Z,1.73
2023-02-01T11:29:47.236Z,1.67
2023-02-01T11:30:50.324Z,0.98
2023-02-01T11:31:53.046Z,1.20
2023-02-01T11:32:55.134Z,1.17
2023-02-01T11:34:00.654Z,1.73
2023-02-01T11:35:06.274Z,0.95
2023-02-01T11:36:10.013Z,1.27
2023-02-01T11:37:19.383Z,1.10
2023-02-01T11:38:23.291Z,1.25
2023-02-01T11:39:28.167Z,0.93
2023-02-01T11:40:36.963Z,0.75
2023-02-01T11:41:44.256Z,1.00
2023-02-01T11:42:55.436Z,0.90
2023-02-01T11:43:59.428Z,1.00
2023-02-01T11:45:23.233Z,1.00
2023-02-01T11:46:30.115Z,1.20
2023-02-01T11:47:41.202Z,0.90
2023-02-01T11:48:44.629Z,1.15
2023-02-01T11:49:46.922Z,1.00
2023-02-01T11:50:56.071Z,0.60
2023-02-01T11:52:10.359Z,1.20
2023-02-01T11:53:25.862Z,1.30
2023-02-01T11:54:48.273Z,1.00
2023-02-01T11:56:10.299Z,0.90
2023-02-01T11:57:24.853Z,0.90
2023-02-01T11:58:44.695Z,1.25
2023-02-01T12:00:09.638Z,0.90
2023-02-01T12:01:24.151Z,1.10
2023-02-01T12:02:47.499Z,0.80
2023-02-01T12:04:13.305Z,1.00
2023-02-01T12:05:27.049Z,0.63
2023-02-01T12:06:36.688Z,0.45
2023-02-01T12:07:51.909Z,1.42
2023-02-01T12:09:15.400Z,0.93
2023-02-01T12:10:27.319Z,1.20
2023-02-01T12:11:39.846Z,1.42
2023-02-01T12:12:49.085Z,1.17
2023-02-01T12:13:58.949Z,1.00
2023-02-01T12:15:12.372Z,1.33
2023-02-01T12:16:24.172Z,0.60
2023-02-01T12:17:44.134Z,1.70
2023-02-01T12:19:02.318Z,0.90
2023-02-01T12:20:15.949Z,1.10
2023-02-01T12:21:30.701Z,1.02
2023-02-01T12:22:46.513Z,1.33
2023-02-01T12:24:03.365Z,1.13
2023-02-01T12:25:18.063Z,0.63
2023-02-01T12:26:41.385Z,0.82
2023-02-01T12:28:14.790Z,0.70
2023-02-01T12:29:49.841Z,1.00
2023-02-01T12:31:06.244Z,1.45
2023-02-01T12:32:13.568Z,1.05
2023-02-01T12:33:21.245Z,1.00
2023-02-01T12:34:35.473Z,0.60
2023-02-01T12:35:51.988Z,1.23
2023-02-01T12:37:08.849Z,0.93
2023-02-01T12:38:23.236Z,0.70
2023-02-01T12:39:31.983Z,0.82
2023-02-01T12:40:46.117Z,0.88
2023-02-01T12:41:57.840Z,1.40
2023-02-01T12:43:04.758Z,0.90
2023-02-01T12:44:11.382Z,1.15
2023-02-01T12:45:18.986Z,0.85
2023-02-01T12:46:24.509Z,1.92
2023-02-01T12:47:31.930Z,1.17
2023-02-01T12:48:36.351Z,1.00
2023-02-01T12:49:47.451Z,1.02
2023-02-01T12:50:53.018Z,1.30
2023-02-01T12:51:59.947Z,0.95
2023-02-01T12:53:10.202Z,0.90
2023-02-01T12:54:16.767Z,0.80
2023-02-01T12:55:24.247Z,0.70
2023-02-01T12:56:31.655Z,1.17
2023-02-01T12:57:36.904Z,0.85
2023-02-01T12:58:42.839Z,0.52
2023-02-01T12:59:49.472Z,0.80
2023-02-01T13:00:55.257Z,0.80
2023-02-01T13:02:01.514Z,0.77
2023-02-01T13:03:10.230Z,1.05
2023-02-01T13:04:23.333Z,1.25
2023-02-01T13:05:30.968Z,0.82
2023-02-01T13:06:37.515Z,0.90
2023-02-01T13:07:43.886Z,0.50
2023-02-01T13:08:51.402Z,1.10
2023-02-01T13:09:56.323Z,0.95
2023-02-01T13:11:03.108Z,0.88
2023-02-01T13:12:13.692Z,0.70
2023-02-01T13:13:22.425Z,1.20
2023-02-01T13:14:29.935Z,1.30
2023-02-01T13:15:35.741Z,0.90
2023-02-01T13:16:42.862Z,1.15
2023-02-01T13:17:47.311Z,0.77
2023-02-01T13:18:51.894Z,1.02
2023-02-01T13:19:57.876Z,0.90
2023-02-01T13:21:06.006Z,0.95
2023-02-01T13:22:14.328Z,0.93
2023-02-01T13:23:24.652Z,0.88
2023-02-01T13:24:33.789Z,0.90
2023-02-01T13:25:40.192Z,0.90
2023-02-01T13:26:42.962Z,0.85
2023-02-01T13:27:45.612Z,1.10
2023-02-01T13:28:51.790Z,1.10
2023-02-01T13:29:57.378Z,1.15
2023-02-01T13:31:13.036Z,0.98
2023-02-01T13:33:50.683Z,1.00
2023-02-01T13:34:32.104Z,0.60
2023-02-01T13:36:02.586Z,0.77
2023-02-01T13:37:16.667Z,0.77
2023-02-01T13:38:49.636Z,1.25
2023-02-01T13:40:02.406Z,0.85
2023-02-01T13:41:17.403Z,1.13
2023-02-01T13:42:23.166Z,1.13
2023-02-01T13:43:27.291Z,1.30
2023-02-01T13:44:34.188Z,0.60
2023-02-01T13:45:38.098Z,1.70
2023-02-01T13:46:42.451Z,1.27
2023-02-01T13:47:48.051Z,0.82
2023-02-01T13:48:53.667Z,0.73
2023-02-01T13:49:57.861Z,1.42
2023-02-01T13:51:01.294Z,1.00
2023-02-01T13:52:03.326Z,1.30
2023-02-01T13:53:16.104Z,0.80
2023-02-01T13:54:27.902Z,1.20
2023-02-01T13:55:35.842Z,0.55
2023-02-01T13:56:42.458Z,0.85
2023-02-01T13:57:46.027Z,0.95
2023-02-01T13:58:49.913Z,0.75
2023-02-01T13:59:55.276Z,0.60
2023-02-01T14:01:46.325Z,0.98
2023-02-01T14:02:51.074Z,0.93
2023-02-01T14:03:55.275Z,1.02
2023-02-01T14:04:58.113Z,0.90
2023-02-01T14:06:19.896Z,1.38
2023-02-01T14:07:24.846Z,0.75
2023-02-01T14:08:42.012Z,1.30
2023-02-01T14:09:44.685Z,1.20
2023-02-01T14:10:51.624Z,0.90
2023-02-01T14:11:55.513Z,0.90
2023-02-01T14:13:05.376Z,1.33
2023-02-01T14:14:41.505Z,0.95
2023-02-01T14:16:10.792Z,1.10
2023-02-01T14:17:37.989Z,0.82
2023-02-01T14:19:04.215Z,0.65
2023-02-01T14:20:54.244Z,0.65
2023-02-01T14:21:59.997Z,0.75
2023-02-01T14:23:02.467Z,0.73
2023-02-01T14:24:23.122Z,1.15
2023-02-01T14:25:25.571Z,1.13
2023-02-01T14:26:42.965Z,0.85
2023-02-01T14:27:44.851Z,1.15
2023-02-01T14:28:58.184Z,1.10
2023-02-01T14:30:02.052Z,1.10
2023-02-01T14:31:31.300Z,0.90
2023-02-01T14:32:37.063Z,1.30
2023-02-01T14:33:42.956Z,0.80
2023-02-01T14:34:53.438Z,1.48
2023-02-01T14:36:03.607Z,0.75
2023-02-01T14:37:08.797Z,1.13
2023-02-01T14:38:12.223Z,0.85
2023-02-01T14:39:23.531Z,0.90
2023-02-01T14:40:28.474Z,1.52
2023-02-01T14:41:33.258Z,0.80
2023-02-01T14:42:40.865Z,0.93
2023-02-01T14:43:52.359Z,0.77